• Join FlightAware (Why Join?)
  • Login
  • US Flag 
12:38AM EDT


 

Airport Tracker/Info


-or-


 

Live Flight TrackerFlight Track Log ✈ BLS386 ✈ 04-Nov-2013 ✈ CYSB - CYTS

Flight Track Log - Related Links

Times and Time Zones

All times are in EST time to prevent confusion due to time zone crossing. See the BLS386 flight status page for this flight to view local times or setup timezone preferences in your user account.

Time Position Orientation Groundspeed Altitude Reporting Facility
EST Latitude Longitude Course Direction KTS MPH feet Rate Location/Type
01:46PM 46.6167 -80.7500 348° North 150 173 2,000  Level Toronto Center
01:47PM 46.6167 -80.7000 90° East 150 173 4,400 2,220 Climbing Toronto Center
01:48PM 46.6500 -80.6333 54° Northeast 180 207 6,500 1,920 Climbing Toronto Center
01:49PM 46.7000 -80.6333 360° North 200 230 8,300 1,500 Climbing Toronto Center
01:50PM 46.7667 -80.6333 360° North 220 253 9,600 1,260 Climbing Toronto Center
01:51PM 46.8167 -80.6500 347° North 220 253 10,900 1,200 Climbing Toronto Center
01:52PM 47.0436 -80.9181 348° North  Level FlightAware Approximate
01:52PM 46.8833 -80.6833 341° North 230 265 12,000  Level Toronto Center
01:53PM 46.9500 -80.7000 350° North 230 265 13,400 960 Climbing Toronto Center
01:54PM 47.0167 -80.7333 341° North 230 265 14,000 300 Climbing Toronto Center
01:55PM 47.0833 -80.7500 350° North 250 288 14,000  Level Toronto Center
01:56PM 47.1500 -80.7833 341° North 270 311 14,000  Level Toronto Center
01:57PM 47.2333 -80.8167 345° North 280 322 14,000  Level Toronto Center
01:58PM 47.3000 -80.8667 333° Northwest 270 311 14,100  Climbing Toronto Center
01:59PM 47.3667 -80.8833 350° North 270 311 14,100  Level Toronto Center
02:00PM 47.4333 -80.9167 341° North 270 311 14,100  Level Toronto Center
02:01PM 47.5000 -80.9333 350° North 270 311 14,100  Level Toronto Center
02:02PM 47.5833 -80.9667 345° North 270 311 14,100  Level Toronto Center
02:03PM 47.6500 -81.0000 341° North 270 311 14,100  Level Toronto Center
02:04PM 47.7167 -81.0167 350° North 270 311 14,100  Level Toronto Center
02:05PM 47.8000 -81.0500 345° North 270 311 14,100  Level Toronto Center
02:06PM 47.8667 -81.0667 350° North 270 311 14,100  Level Toronto Center
02:07PM 47.9500 -81.1000 345° North 270 311 14,100 -780 Level Toronto Center
02:08PM 48.0333 -81.1333 345° North 290 334 12,600 -1,500 Descending Toronto Center
02:11PM 48.1149 -81.1985 332° Northwest  Level FlightAware Approximate
02:18PM 48.5344 -81.3667 North  Level FlightAware Approximate
02:19PM 48.5667 -81.3667 North  Level FlightAware Approximate